メインページ
METAR-TAF:

METAR-TAF

空港 :

ワルシャワ, ポーランド

ワルシャワ・ショパン空港

緯度: 52-10N, 経度: 020-58E, 海抜: 106m

現時点の気象観測

当レポートは10分前の14:30(UTC)に作成
南/南西の風 9kt
気温 21°C
湿度 56%
気圧 1002 hPa
視程10km以上
高度4300ftの雲はほとんどない

METAR: EPWA 261430Z 20009KT 9999 FEW043 21/12 Q1002 NOSIG

時間: 16:40 (14:40 UTC)

予報

当レポートは3時間10分前の11:30(UTC)に作成
予報は26日の 12時(UTC)から 27日の 12時(UTC)まで有効
南西の風 10kt
視程10km以上
1,500メートル以下は雲なし、積乱雲なし

TAF: EPWA 261130Z 2612/2712 23010KT CAVOK

4,000以上の空港の気象観測と天気予報(METAR報とTAF報)

利用可能な観測所は地図上に黄色い丸と赤い丸で示す。

丸の上にカーソルを重ねると観測所名を参照できる。

次にクリックすると気象観測と天気予報を参照できる。

マップの切り替え:黒色「×」印の緑ボタンをクリックして拡大、「-」印の緑ボタンをクリックして縮小、緑色の三角印をクリックして隣りの地図に切り替え


METAR-TAF: